createdAt,value
2019-01-17T00:02:04.479Z,-1.36
2019-01-17T00:04:44.156Z,-1.41
2019-01-17T00:07:14.430Z,-1.33
2019-01-17T00:10:01.406Z,-1.32
2019-01-17T00:12:31.667Z,-1.32
2019-01-17T00:15:01.936Z,-1.16
2019-01-17T00:17:35.070Z,-1.12
2019-01-17T00:20:07.143Z,-1.10
2019-01-17T00:22:37.401Z,-1.10
2019-01-17T00:25:18.791Z,-1.09
2019-01-17T00:27:49.054Z,-1.07
2019-01-17T00:30:22.085Z,-1.05
2019-01-17T00:32:58.381Z,-1.24
2019-01-17T00:35:45.082Z,-1.36
2019-01-17T00:38:31.664Z,-1.42
2019-01-17T00:41:04.972Z,-1.32
2019-01-17T00:43:38.048Z,-1.30
2019-01-17T00:46:14.227Z,-1.35
2019-01-17T00:48:53.664Z,-1.35
2019-01-17T00:51:23.927Z,-1.57
2019-01-17T00:54:09.575Z,-1.49
2019-01-17T00:56:45.637Z,-1.73
2019-01-17T00:59:28.171Z,-1.73
2019-01-17T01:02:04.498Z,-1.77
2019-01-17T01:04:40.465Z,-1.67
2019-01-17T01:07:27.153Z,-1.66
2019-01-17T01:10:13.936Z,-1.67
2019-01-17T01:12:47.308Z,-1.64
2019-01-17T01:15:25.686Z,-1.78
2019-01-17T01:18:11.170Z,-1.86
2019-01-17T01:20:50.498Z,-1.94
2019-01-17T01:23:26.940Z,-1.92
2019-01-17T01:26:03.657Z,-1.95
2019-01-17T01:28:33.969Z,-1.91
2019-01-17T01:31:04.234Z,-1.89
2019-01-17T01:33:40.669Z,-1.87
2019-01-17T01:36:10.944Z,-1.86
2019-01-17T01:38:43.911Z,-1.83
2019-01-17T01:41:14.217Z,-1.84
2019-01-17T01:43:47.452Z,-1.87
2019-01-17T01:46:23.942Z,-1.84
2019-01-17T01:49:03.550Z,-1.91
2019-01-17T01:51:45.942Z,-1.91
2019-01-17T01:54:14.573Z,-1.93
2019-01-17T01:56:43.201Z,-1.92
2019-01-17T01:59:11.962Z,-1.94
2019-01-17T02:01:40.661Z,-1.98
2019-01-17T02:04:09.300Z,-1.95
2019-01-17T02:06:38.056Z,-1.88
2019-01-17T02:09:08.665Z,-1.88
2019-01-17T02:11:37.405Z,-1.89
2019-01-17T02:14:07.195Z,-1.83
2019-01-17T02:16:35.904Z,-1.82
2019-01-17T02:19:04.804Z,-1.81
2019-01-17T02:21:33.503Z,-1.85
2019-01-17T02:24:02.215Z,-1.85
2019-01-17T02:26:30.936Z,-1.80
2019-01-17T02:28:59.628Z,-1.77
2019-01-17T02:31:28.262Z,-1.77
2019-01-17T02:33:56.957Z,-1.79
2019-01-17T02:36:25.838Z,-1.79
2019-01-17T02:38:54.578Z,-1.82
2019-01-17T02:41:23.206Z,-1.76
2019-01-17T02:43:52.072Z,-1.77
2019-01-17T02:46:20.907Z,-1.82
2019-01-17T02:48:49.627Z,-1.81
2019-01-17T02:51:18.369Z,-1.82
2019-01-17T02:53:46.995Z,-1.83
2019-01-17T02:56:15.627Z,-1.83
2019-01-17T02:58:44.373Z,-1.85
2019-01-17T03:01:13.076Z,-1.83
2019-01-17T03:03:41.680Z,-2.00
2019-01-17T03:06:10.339Z,-2.06
2019-01-17T03:08:38.998Z,-2.27
2019-01-17T03:11:07.691Z,-2.44
2019-01-17T03:13:36.398Z,-2.39
2019-01-17T03:16:05.039Z,-2.39
2019-01-17T03:18:33.737Z,-2.40
2019-01-17T03:21:02.478Z,-2.39
2019-01-17T03:23:31.116Z,-2.29
2019-01-17T03:25:59.734Z,-2.25
2019-01-17T03:28:28.478Z,-2.20
2019-01-17T03:30:57.188Z,-2.24
2019-01-17T03:33:25.841Z,-2.26
2019-01-17T03:35:54.581Z,-2.22
2019-01-17T03:38:23.275Z,-2.36
2019-01-17T03:40:51.988Z,-2.43
2019-01-17T03:43:20.667Z,-2.32
2019-01-17T03:45:49.296Z,-2.50
2019-01-17T03:48:17.988Z,-2.62
2019-01-17T03:50:46.713Z,-2.69
2019-01-17T03:53:15.349Z,-2.75
2019-01-17T03:55:44.256Z,-2.75
2019-01-17T03:58:12.927Z,-2.73
2019-01-17T04:00:41.561Z,-2.71
2019-01-17T04:03:10.201Z,-2.65
2019-01-17T04:05:39.064Z,-2.60
2019-01-17T04:08:07.689Z,-2.50
2019-01-17T04:10:36.314Z,-2.42
2019-01-17T04:13:05.233Z,-2.49
2019-01-17T04:15:34.048Z,-2.49
2019-01-17T04:18:03.057Z,-2.57
2019-01-17T04:20:31.707Z,-2.53
2019-01-17T04:23:00.413Z,-2.44
2019-01-17T04:25:29.328Z,-2.50
2019-01-17T04:27:57.965Z,-2.47
2019-01-17T04:30:26.610Z,-2.50
2019-01-17T04:32:55.270Z,-2.58
2019-01-17T04:35:23.980Z,-2.70
2019-01-17T04:37:52.623Z,-2.83
2019-01-17T04:40:21.287Z,-2.87
2019-01-17T04:42:50.000Z,-2.97
2019-01-17T04:45:18.628Z,-3.02
2019-01-17T04:47:47.389Z,-3.12
2019-01-17T04:50:16.090Z,-3.19
2019-01-17T04:52:44.715Z,-3.26
2019-01-17T04:55:14.664Z,-3.41
2019-01-17T04:57:43.288Z,-3.39
2019-01-17T05:00:17.838Z,-3.40
2019-01-17T05:02:46.535Z,-3.43
2019-01-17T05:05:15.369Z,-3.42
2019-01-17T05:07:44.173Z,-3.45
2019-01-17T05:10:15.471Z,-3.51
2019-01-17T05:12:44.111Z,-3.64
2019-01-17T05:15:13.625Z,-3.69
2019-01-17T05:17:42.366Z,-3.67
2019-01-17T05:20:15.923Z,-3.71
2019-01-17T05:22:44.550Z,-3.81
2019-01-17T05:25:13.512Z,-3.91
2019-01-17T05:27:42.144Z,-3.99
2019-01-17T05:30:16.568Z,-4.10
2019-01-17T05:32:45.334Z,-4.16
2019-01-17T05:35:14.469Z,-4.13
2019-01-17T05:37:43.313Z,-4.10
2019-01-17T05:40:17.299Z,-4.07
2019-01-17T05:42:46.101Z,-4.05
2019-01-17T05:45:15.729Z,-4.02
2019-01-17T05:47:44.405Z,-3.97
2019-01-17T05:50:15.464Z,-3.84
2019-01-17T05:52:44.262Z,-3.81
2019-01-17T05:55:19.761Z,-3.79
2019-01-17T05:57:43.666Z,-3.77
2019-01-17T06:00:17.837Z,-3.72
2019-01-17T06:02:46.659Z,-3.71
2019-01-17T06:05:16.291Z,-3.59
2019-01-17T06:07:45.237Z,-3.44
2019-01-17T06:10:13.958Z,-3.22
2019-01-17T06:12:42.603Z,-3.27
2019-01-17T06:15:16.762Z,-3.33
2019-01-17T06:17:45.377Z,-2.93
2019-01-17T06:20:16.320Z,-2.48
2019-01-17T06:22:44.984Z,-2.17
2019-01-17T06:25:13.781Z,-1.94
2019-01-17T06:27:42.483Z,-1.46
2019-01-17T06:30:14.266Z,-1.26
2019-01-17T06:32:43.763Z,-1.24
2019-01-17T06:35:13.014Z,-1.02
2019-01-17T06:37:41.900Z,-0.54
2019-01-17T06:40:13.914Z,0.17
2019-01-17T06:42:42.812Z,0.91
2019-01-17T06:45:11.698Z,1.21
2019-01-17T06:47:40.323Z,1.59
2019-01-17T06:50:10.562Z,2.05
2019-01-17T06:52:39.307Z,2.29
2019-01-17T06:55:08.639Z,2.42
2019-01-17T06:57:37.345Z,2.63
2019-01-17T07:00:15.000Z,2.95
2019-01-17T07:02:44.097Z,3.26
2019-01-17T07:05:14.004Z,3.39
2019-01-17T07:07:42.785Z,3.56
2019-01-17T07:10:16.658Z,3.36
2019-01-17T07:12:46.219Z,2.96
2019-01-17T07:15:15.267Z,2.82
2019-01-17T07:17:43.927Z,3.28
2019-01-17T07:20:15.066Z,3.73
2019-01-17T07:22:44.036Z,4.06
2019-01-17T07:25:13.070Z,4.37
2019-01-17T07:27:41.735Z,4.35
2019-01-17T07:30:16.137Z,4.09
2019-01-17T07:32:44.768Z,4.17
2019-01-17T07:35:13.559Z,4.39
2019-01-17T07:37:42.895Z,4.52
2019-01-17T07:40:12.294Z,4.52
2019-01-17T07:42:41.019Z,4.75
2019-01-17T07:45:24.231Z,4.88
2019-01-17T07:47:52.922Z,5.07
2019-01-17T07:50:21.636Z,5.07
2019-01-17T07:52:50.296Z,5.02
2019-01-17T07:55:18.925Z,4.98
2019-01-17T07:57:47.559Z,4.95
2019-01-17T08:00:19.187Z,4.94
2019-01-17T08:02:47.810Z,4.45
2019-01-17T08:05:16.598Z,3.98
2019-01-17T08:07:45.228Z,3.33
2019-01-17T08:10:16.260Z,3.39
2019-01-17T08:12:45.061Z,3.14
2019-01-17T08:15:14.680Z,3.08
2019-01-17T08:17:43.403Z,2.99
2019-01-17T08:20:22.921Z,3.18
2019-01-17T08:22:51.717Z,2.59
2019-01-17T08:25:20.710Z,2.14
2019-01-17T08:27:49.481Z,1.85
2019-01-17T08:30:26.051Z,2.06
2019-01-17T08:32:54.712Z,1.95
2019-01-17T08:35:23.507Z,1.76
2019-01-17T08:37:52.138Z,1.62
2019-01-17T08:40:26.528Z,1.85
2019-01-17T08:42:58.512Z,1.88
2019-01-17T08:45:27.211Z,1.77
2019-01-17T08:47:56.033Z,2.00
2019-01-17T08:50:24.734Z,2.01
2019-01-17T08:52:53.392Z,2.02
2019-01-17T08:55:22.103Z,2.10
2019-01-17T08:57:50.803Z,2.27
2019-01-17T09:00:24.735Z,2.32
2019-01-17T09:02:53.508Z,2.25
2019-01-17T09:05:22.327Z,2.31
2019-01-17T09:07:50.960Z,2.51
2019-01-17T09:10:28.236Z,2.61
2019-01-17T09:12:56.857Z,2.45
2019-01-17T09:15:28.269Z,2.26
2019-01-17T09:17:57.035Z,2.08
2019-01-17T09:20:25.672Z,1.97
2019-01-17T09:22:54.313Z,1.75
2019-01-17T09:25:22.985Z,1.71
2019-01-17T09:27:51.647Z,1.61
2019-01-17T09:30:21.733Z,1.65
2019-01-17T09:32:50.370Z,1.73
2019-01-17T09:35:19.513Z,1.74
2019-01-17T09:37:48.221Z,1.62
2019-01-17T09:40:20.495Z,1.65
2019-01-17T09:42:49.202Z,1.87
2019-01-17T09:45:18.138Z,1.93
2019-01-17T09:47:46.784Z,2.03
2019-01-17T09:50:20.861Z,2.04
2019-01-17T09:52:49.775Z,2.09
2019-01-17T09:55:18.403Z,2.23
2019-01-17T09:57:47.227Z,2.26
2019-01-17T10:00:18.703Z,2.33
2019-01-17T10:02:47.326Z,2.34
2019-01-17T10:05:16.033Z,2.45
2019-01-17T10:07:44.792Z,2.42
2019-01-17T10:10:18.826Z,2.48
2019-01-17T10:12:47.547Z,2.59
2019-01-17T10:15:25.103Z,2.63
2019-01-17T10:18:24.049Z,2.74
2019-01-17T10:21:07.422Z,2.94
2019-01-17T10:23:50.892Z,3.09
2019-01-17T10:26:28.318Z,3.09
2019-01-17T10:29:08.614Z,3.19
2019-01-17T10:31:55.241Z,3.17
2019-01-17T10:34:38.898Z,3.30
2019-01-17T10:37:34.680Z,3.43
2019-01-17T10:40:28.549Z,3.54
2019-01-17T10:43:18.389Z,3.71
2019-01-17T10:46:01.901Z,3.85
2019-01-17T10:48:33.588Z,3.91
2019-01-17T10:51:22.146Z,4.10
2019-01-17T10:54:03.213Z,4.23
2019-01-17T10:56:41.313Z,4.28
2019-01-17T10:59:16.878Z,4.34
2019-01-17T11:01:51.254Z,4.51
2019-01-17T11:04:37.774Z,4.56
2019-01-17T11:07:15.354Z,4.67
2019-01-17T11:10:08.983Z,4.96
2019-01-17T11:12:57.093Z,5.09
2019-01-17T11:15:34.564Z,5.15
2019-01-17T11:18:30.405Z,5.20
2019-01-17T11:21:30.863Z,5.22
2019-01-17T11:24:19.172Z,5.27
2019-01-17T11:26:50.838Z,5.24
2019-01-17T11:29:28.012Z,5.28
2019-01-17T11:32:22.742Z,5.34
2019-01-17T11:35:15.443Z,5.30
2019-01-17T11:37:47.525Z,5.35
2019-01-17T11:40:24.986Z,5.46
2019-01-17T11:43:19.473Z,5.56
2019-01-17T11:46:10.574Z,5.70
2019-01-17T11:48:54.179Z,5.70
2019-01-17T11:51:34.021Z,5.63
2019-01-17T11:54:20.397Z,5.62
2019-01-17T11:57:12.790Z,5.67
2019-01-17T12:00:02.878Z,5.56
2019-01-17T12:02:39.256Z,5.69
2019-01-17T12:05:07.982Z,5.66
2019-01-17T12:07:36.608Z,5.62
2019-01-17T12:10:06.835Z,5.66
2019-01-17T12:12:35.985Z,5.71
2019-01-17T12:15:06.996Z,5.72
2019-01-17T12:17:35.719Z,5.78
2019-01-17T12:20:07.061Z,5.67
2019-01-17T12:22:35.689Z,5.73
2019-01-17T12:25:05.286Z,5.90
2019-01-17T12:27:34.029Z,5.98
2019-01-17T12:30:02.652Z,5.95
2019-01-17T12:32:31.394Z,5.91
2019-01-17T12:35:00.407Z,5.90
2019-01-17T12:37:29.123Z,5.90
2019-01-17T12:39:57.819Z,5.93
2019-01-17T12:42:26.501Z,5.93
2019-01-17T12:44:55.216Z,5.92
2019-01-17T12:47:23.926Z,5.94
2019-01-17T12:49:52.678Z,5.94
2019-01-17T12:52:21.324Z,5.92
2019-01-17T12:54:50.064Z,5.80
2019-01-17T12:57:18.836Z,5.92
2019-01-17T12:59:47.475Z,5.90
2019-01-17T13:02:16.179Z,5.97
2019-01-17T13:04:45.064Z,5.99
2019-01-17T13:07:13.773Z,6.07
2019-01-17T13:09:42.414Z,6.11
2019-01-17T13:12:11.187Z,6.16
2019-01-17T13:14:39.983Z,6.06
2019-01-17T13:17:08.651Z,6.15
2019-01-17T13:19:37.322Z,6.07
2019-01-17T13:22:06.262Z,6.14
2019-01-17T13:24:34.971Z,6.16
2019-01-17T13:27:03.749Z,6.07
2019-01-17T13:29:32.376Z,5.96
2019-01-17T13:32:01.057Z,5.85
2019-01-17T13:34:29.984Z,5.92
2019-01-17T13:36:58.607Z,5.93
2019-01-17T13:39:27.322Z,5.92
2019-01-17T13:41:56.009Z,5.88
2019-01-17T13:44:24.736Z,5.87
2019-01-17T13:46:53.461Z,5.91
2019-01-17T13:49:22.205Z,5.93
2019-01-17T13:51:50.829Z,5.95
2019-01-17T13:54:19.472Z,5.96
2019-01-17T13:56:48.326Z,5.95
2019-01-17T13:59:17.033Z,5.82
2019-01-17T14:01:45.688Z,5.76
2019-01-17T14:04:14.615Z,5.66
2019-01-17T14:06:43.241Z,5.67
2019-01-17T14:09:11.947Z,5.72
2019-01-17T14:11:40.631Z,5.75
2019-01-17T14:14:09.235Z,5.74
2019-01-17T14:16:37.930Z,5.76
2019-01-17T14:19:06.693Z,5.72
2019-01-17T14:21:35.397Z,5.59
2019-01-17T14:24:04.053Z,5.42
2019-01-17T14:26:32.915Z,5.35
2019-01-17T14:29:01.643Z,5.39
2019-01-17T14:31:30.351Z,5.45
2019-01-17T14:33:59.029Z,5.48
2019-01-17T14:36:27.734Z,5.44
2019-01-17T14:38:56.441Z,5.39
2019-01-17T14:41:25.120Z,5.31
2019-01-17T14:43:53.754Z,5.33
2019-01-17T14:46:22.458Z,5.30
2019-01-17T14:48:51.249Z,5.31
2019-01-17T14:51:19.871Z,5.28
2019-01-17T14:53:48.505Z,5.22
2019-01-17T14:56:17.256Z,5.20
2019-01-17T14:58:45.882Z,5.10
2019-01-17T15:01:14.582Z,5.03
2019-01-17T15:03:43.323Z,4.91
2019-01-17T15:06:11.952Z,4.82
2019-01-17T15:08:40.577Z,4.68
2019-01-17T15:11:09.336Z,4.61
2019-01-17T15:13:38.025Z,4.53
2019-01-17T15:16:06.653Z,4.56
2019-01-17T15:18:35.330Z,4.44
2019-01-17T15:21:04.039Z,4.32
2019-01-17T15:23:32.724Z,4.19
2019-01-17T15:26:01.396Z,3.99
2019-01-17T15:28:30.085Z,3.91
2019-01-17T15:30:58.834Z,3.93
2019-01-17T15:33:27.566Z,3.80
2019-01-17T15:35:56.208Z,3.75
2019-01-17T15:38:24.899Z,3.70
2019-01-17T15:40:53.583Z,3.73
2019-01-17T15:43:31.317Z,3.80
2019-01-17T15:46:00.228Z,3.64
2019-01-17T15:48:28.961Z,3.49
2019-01-17T15:50:57.695Z,3.28
2019-01-17T15:53:26.293Z,3.22
2019-01-17T15:55:55.052Z,3.19
2019-01-17T15:58:23.767Z,3.06
2019-01-17T16:00:52.393Z,3.02
2019-01-17T16:03:21.151Z,2.89
2019-01-17T16:05:49.848Z,2.71
2019-01-17T16:08:18.559Z,2.58
2019-01-17T16:10:47.235Z,2.49
2019-01-17T16:13:15.933Z,2.43
2019-01-17T16:15:44.549Z,2.37
2019-01-17T16:18:13.437Z,2.30
2019-01-17T16:20:42.147Z,2.30
2019-01-17T16:23:10.899Z,2.30
2019-01-17T16:25:39.826Z,2.19
2019-01-17T16:28:08.449Z,2.21
2019-01-17T16:30:37.153Z,2.17
2019-01-17T16:33:05.892Z,2.12
2019-01-17T16:35:34.522Z,2.09
2019-01-17T16:38:03.158Z,1.98
2019-01-17T16:40:31.886Z,1.90
2019-01-17T16:43:00.514Z,1.83
2019-01-17T16:45:35.213Z,1.75
2019-01-17T16:47:59.810Z,1.70
2019-01-17T16:50:28.614Z,1.76
2019-01-17T16:52:57.247Z,1.73
2019-01-17T16:55:26.186Z,1.65
2019-01-17T16:57:54.910Z,1.55
2019-01-17T17:00:38.483Z,1.47
2019-01-17T17:03:07.104Z,1.44
2019-01-17T17:05:35.809Z,1.47
2019-01-17T17:08:05.091Z,1.37
2019-01-17T17:10:33.920Z,1.34
2019-01-17T17:13:02.557Z,1.30
2019-01-17T17:15:32.395Z,1.47
2019-01-17T17:18:01.093Z,1.46
2019-01-17T17:20:30.005Z,1.37
2019-01-17T17:22:58.712Z,1.34
2019-01-17T17:25:27.406Z,1.26
2019-01-17T17:27:56.117Z,1.21
2019-01-17T17:30:27.099Z,1.18
2019-01-17T17:32:55.730Z,1.08
2019-01-17T17:35:24.452Z,1.04
2019-01-17T17:37:53.428Z,1.02
2019-01-17T17:40:24.532Z,0.95
2019-01-17T17:42:53.236Z,0.84
2019-01-17T17:45:21.914Z,0.83
2019-01-17T17:47:50.533Z,0.73
2019-01-17T17:50:21.341Z,0.64
2019-01-17T17:52:50.218Z,0.66
2019-01-17T17:55:19.851Z,0.64
2019-01-17T17:57:48.693Z,0.71
2019-01-17T18:00:27.109Z,0.62
2019-01-17T18:02:56.285Z,0.66
2019-01-17T18:05:24.909Z,0.77
2019-01-17T18:07:53.686Z,0.68
2019-01-17T18:10:22.378Z,0.63
2019-01-17T18:12:51.082Z,0.59
2019-01-17T18:15:20.026Z,0.44
2019-01-17T18:17:48.927Z,0.39
2019-01-17T18:20:18.836Z,0.52
2019-01-17T18:22:47.569Z,0.40
2019-01-17T18:25:16.204Z,0.39
2019-01-17T18:27:44.895Z,0.39
2019-01-17T18:30:27.096Z,0.42
2019-01-17T18:32:55.718Z,0.24
2019-01-17T18:35:24.466Z,0.15
2019-01-17T18:37:53.403Z,0.13
2019-01-17T18:40:22.430Z,0.18
2019-01-17T18:42:51.071Z,0.13
2019-01-17T18:45:22.422Z,0.04
2019-01-17T18:47:51.379Z,-0.03
2019-01-17T18:50:25.542Z,-0.09
2019-01-17T18:52:54.410Z,-0.08
2019-01-17T18:55:23.035Z,0.14
2019-01-17T18:57:51.666Z,0.26
2019-01-17T19:00:27.307Z,0.26
2019-01-17T19:02:56.340Z,0.21
2019-01-17T19:05:25.064Z,0.09
2019-01-17T19:07:53.748Z,0.07
2019-01-17T19:10:22.753Z,-0.02
2019-01-17T19:12:51.755Z,-0.09
2019-01-17T19:15:23.058Z,-0.16
2019-01-17T19:17:51.788Z,-0.27
2019-01-17T19:20:21.299Z,-0.31
2019-01-17T19:22:50.010Z,-0.30
2019-01-17T19:25:19.130Z,-0.30
2019-01-17T19:27:47.774Z,-0.34
2019-01-17T19:30:24.433Z,-0.32
2019-01-17T19:32:53.290Z,-0.32
2019-01-17T19:35:21.930Z,-0.36
2019-01-17T19:37:50.620Z,-0.37
2019-01-17T19:40:27.447Z,-0.34
2019-01-17T19:42:56.176Z,-0.37
2019-01-17T19:45:24.802Z,-0.50
2019-01-17T19:47:53.507Z,-0.54
2019-01-17T19:50:27.991Z,-0.51
2019-01-17T19:52:56.711Z,-0.45
2019-01-17T19:55:25.465Z,-0.53
2019-01-17T19:57:54.090Z,-0.57
2019-01-17T20:00:23.015Z,-0.60
2019-01-17T20:02:52.070Z,-0.65
2019-01-17T20:05:26.561Z,-0.66
2019-01-17T20:07:55.271Z,-0.61
2019-01-17T20:10:32.525Z,-0.61
2019-01-17T20:13:01.252Z,-0.60
2019-01-17T20:15:30.178Z,-0.58
2019-01-17T20:17:58.953Z,-0.72
2019-01-17T20:20:31.791Z,-0.65
2019-01-17T20:22:58.050Z,-0.66
2019-01-17T20:25:26.694Z,-0.64
2019-01-17T20:27:55.684Z,-0.57
2019-01-17T20:30:27.069Z,-0.73
2019-01-17T20:32:57.313Z,-0.73
2019-01-17T20:35:26.202Z,-0.69
2019-01-17T20:37:54.868Z,-0.54
2019-01-17T20:40:24.809Z,-0.57
2019-01-17T20:42:53.804Z,-0.76
2019-01-17T20:45:22.736Z,-0.81
2019-01-17T20:47:51.583Z,-0.76
2019-01-17T20:50:23.056Z,-0.94
2019-01-17T20:52:51.695Z,-0.90
2019-01-17T20:55:20.337Z,-0.91
2019-01-17T20:57:50.586Z,-0.85
2019-01-17T21:00:24.779Z,-0.85
2019-01-17T21:02:53.419Z,-0.95
2019-01-17T21:05:22.465Z,-1.02
2019-01-17T21:07:51.103Z,-0.88
2019-01-17T21:10:20.218Z,-0.99
2019-01-17T21:12:49.190Z,-0.92
2019-01-17T21:15:17.828Z,-1.03
2019-01-17T21:17:46.480Z,-1.12
2019-01-17T21:20:15.675Z,-1.18
2019-01-17T21:22:44.298Z,-1.23
2019-01-17T21:25:19.987Z,-1.26
2019-01-17T21:27:48.620Z,-1.28
2019-01-17T21:30:25.414Z,-1.37
2019-01-17T21:32:54.298Z,-1.37
2019-01-17T21:35:23.307Z,-1.23
2019-01-17T21:37:54.777Z,-1.38
2019-01-17T21:40:24.655Z,-1.35
2019-01-17T21:42:53.353Z,-1.55
2019-01-17T21:45:22.105Z,-1.56
2019-01-17T21:47:50.815Z,-1.52
2019-01-17T21:50:31.393Z,-1.64
2019-01-17T21:53:00.047Z,-1.67
2019-01-17T21:55:28.763Z,-1.67
2019-01-17T21:57:57.673Z,-1.69
2019-01-17T22:00:28.129Z,-1.69
2019-01-17T22:02:56.968Z,-1.75
2019-01-17T22:05:25.643Z,-1.50
2019-01-17T22:07:54.365Z,-1.56
2019-01-17T22:10:23.205Z,-1.69
2019-01-17T22:12:52.030Z,-1.57
2019-01-17T22:15:32.990Z,-1.70
2019-01-17T22:18:01.629Z,-1.64
2019-01-17T22:20:30.331Z,-1.66
2019-01-17T22:22:59.104Z,-1.73
2019-01-17T22:25:27.719Z,-2.00
2019-01-17T22:27:56.365Z,-1.96
2019-01-17T22:30:29.758Z,-1.88
2019-01-17T22:32:58.562Z,-2.06
2019-01-17T22:35:27.210Z,-2.10
2019-01-17T22:37:55.852Z,-2.14
2019-01-17T22:40:24.589Z,-2.24
2019-01-17T22:42:53.300Z,-2.29
2019-01-17T22:45:24.873Z,-2.18
2019-01-17T22:47:53.521Z,-2.18
2019-01-17T22:50:22.223Z,-2.34
2019-01-17T22:52:51.613Z,-2.38
2019-01-17T22:55:20.327Z,-2.43
2019-01-17T22:57:49.182Z,-2.38
2019-01-17T23:00:31.195Z,-2.42
2019-01-17T23:02:59.843Z,-2.43
2019-01-17T23:05:28.547Z,-2.32
2019-01-17T23:07:57.293Z,-2.33
2019-01-17T23:10:25.943Z,-2.36
2019-01-17T23:12:54.664Z,-2.38
2019-01-17T23:15:23.588Z,-2.43
2019-01-17T23:17:52.301Z,-2.34
2019-01-17T23:20:20.941Z,-2.25
2019-01-17T23:22:49.781Z,-2.29
2019-01-17T23:25:18.425Z,-2.33
2019-01-17T23:27:47.110Z,-2.33
2019-01-17T23:30:15.845Z,-2.30
2019-01-17T23:32:44.548Z,-2.28
2019-01-17T23:35:13.181Z,-2.24
2019-01-17T23:37:58.013Z,-2.29
2019-01-17T23:40:26.692Z,-2.27
2019-01-17T23:42:55.447Z,-2.21
2019-01-17T23:45:24.168Z,-2.38
2019-01-17T23:47:52.808Z,-2.46
2019-01-17T23:50:21.481Z,-2.29
2019-01-17T23:52:50.199Z,-2.23
2019-01-17T23:55:18.842Z,-2.31
2019-01-17T23:57:47.530Z,-2.48
